Time;durP1;ratioP1;P1;durP2;ratioP2;P2;SDS_P1;SDS_P2;PMS_P1;PMS_P2;Temp;Humidity;BMP_temperature;BMP_pressure;BME280_temperature;BME280_humidity;BME280_pressure;Samples;Min_cycle;Max_cycle;Signal;HPM_P1;HPM_P2
2021/10/06 00:00:51;;;;;;;11.77;4.80;;;12.00;99.90;;;;;;5054415;28;20029;-68
2021/10/06 00:03:16;;;;;;;7.88;4.68;;;12.00;99.90;;;;;;5053527;28;20466;-68
2021/10/06 00:05:42;;;;;;;10.60;4.07;;;12.00;99.90;;;;;;5054609;28;20048;-69
2021/10/06 00:08:08;;;;;;;8.30;4.43;;;12.00;99.90;;;;;;5054574;28;20463;-68
2021/10/06 00:10:34;;;;;;;8.00;3.88;;;12.00;99.90;;;;;;5054237;28;20021;-68
2021/10/06 00:12:59;;;;;;;12.38;4.60;;;12.00;99.90;;;;;;5054402;28;20150;-67
2021/10/06 00:15:25;;;;;;;6.63;3.92;;;12.00;99.90;;;;;;5054443;28;20072;-68
2021/10/06 00:17:51;;;;;;;9.23;4.20;;;12.00;99.90;;;;;;5054396;28;20048;-69
2021/10/06 00:20:16;;;;;;;6.90;3.63;;;12.10;99.90;;;;;;5052884;28;20104;-68
2021/10/06 00:22:42;;;;;;;10.07;4.60;;;12.00;99.90;;;;;;5054021;28;20025;-69
2021/10/06 00:25:08;;;;;;;13.57;3.90;;;12.00;99.90;;;;;;5053447;28;20124;-68
2021/10/06 00:27:34;;;;;;;10.23;4.05;;;12.00;99.90;;;;;;5052842;28;20025;-68
2021/10/06 00:29:59;;;;;;;6.47;3.70;;;12.00;99.90;;;;;;5053967;28;20029;-68
2021/10/06 00:32:25;;;;;;;9.10;4.50;;;12.10;99.90;;;;;;5052339;28;20029;-68
2021/10/06 00:34:52;;;;;;;11.52;4.30;;;12.00;99.90;;;;;;5053878;28;20025;-68
2021/10/06 00:37:18;;;;;;;8.48;3.55;;;12.00;99.90;;;;;;5052451;28;20013;-68
2021/10/06 00:39:43;;;;;;;9.50;4.38;;;12.00;99.90;;;;;;5052276;28;20025;-68
2021/10/06 00:42:09;;;;;;;10.32;3.95;;;12.00;99.90;;;;;;5053823;28;20053;-69
2021/10/06 00:44:35;;;;;;;8.70;3.20;;;12.00;99.90;;;;;;5054059;28;20118;-68
2021/10/06 00:47:02;;;;;;;10.43;4.00;;;12.00;99.90;;;;;;5054001;28;20021;-69
2021/10/06 00:49:27;;;;;;;9.65;3.63;;;12.00;99.90;;;;;;5053821;28;20049;-68
2021/10/06 00:51:53;;;;;;;10.20;3.60;;;12.00;99.90;;;;;;5051861;28;20069;-68
2021/10/06 00:54:19;;;;;;;8.40;3.58;;;12.00;99.90;;;;;;5053942;28;20021;-68
2021/10/06 00:56:44;;;;;;;7.43;3.70;;;12.00;99.90;;;;;;5052757;28;20035;-68
2021/10/06 00:59:10;;;;;;;7.55;3.60;;;12.10;99.90;;;;;;5054443;28;20067;-68
2021/10/06 01:01:35;;;;;;;10.35;3.80;;;12.10;99.90;;;;;;5052436;28;20022;-68
2021/10/06 01:04:03;;;;;;;8.05;3.60;;;12.10;99.90;;;;;;5052393;28;20025;-68
2021/10/06 01:06:30;;;;;;;8.25;3.70;;;12.10;99.90;;;;;;5053257;28;20363;-68
2021/10/06 01:08:58;;;;;;;9.18;3.53;;;12.10;99.90;;;;;;5053811;28;20025;-68
2021/10/06 01:11:24;;;;;;;8.88;3.67;;;12.10;99.90;;;;;;5052626;28;20035;-68
2021/10/06 01:13:49;;;;;;;12.48;3.78;;;12.10;99.90;;;;;;5053698;28;20021;-68
2021/10/06 01:16:16;;;;;;;13.40;4.32;;;12.10;99.90;;;;;;5053735;28;20045;-68
2021/10/06 01:18:41;;;;;;;8.02;3.90;;;12.00;99.90;;;;;;5053384;28;20027;-67
2021/10/06 01:21:16;;;;;;;9.88;4.13;;;12.00;99.90;;;;;;5053687;28;20112;-67
2021/10/06 01:23:43;;;;;;;8.00;3.63;;;12.00;99.90;;;;;;5053374;28;20388;-67
2021/10/06 01:26:10;;;;;;;15.57;4.32;;;12.00;99.90;;;;;;5053648;28;20028;-68
2021/10/06 01:28:35;;;;;;;9.65;3.38;;;12.10;99.90;;;;;;5053605;28;20100;-68
2021/10/06 01:31:01;;;;;;;8.90;3.60;;;12.10;99.90;;;;;;5051875;28;20498;-68
2021/10/06 01:33:27;;;;;;;8.30;3.63;;;12.00;99.90;;;;;;5052961;28;20028;-69
2021/10/06 01:35:52;;;;;;;9.20;3.70;;;12.00;99.90;;;;;;5052057;28;20021;-68
2021/10/06 01:38:18;;;;;;;7.40;3.33;;;11.90;99.90;;;;;;5053237;28;20025;-68
2021/10/06 01:40:44;;;;;;;11.18;3.75;;;11.90;99.90;;;;;;5053477;28;20374;-69
2021/10/06 01:43:09;;;;;;;9.02;3.50;;;11.90;99.90;;;;;;5051661;28;20040;-68
2021/10/06 01:45:35;;;;;;;9.85;3.85;;;11.90;99.90;;;;;;5053442;28;20029;-68
2021/10/06 01:48:06;;;;;;;8.40;3.38;;;12.00;99.90;;;;;;5053454;28;20036;-68
2021/10/06 01:50:32;;;;;;;9.52;3.38;;;12.00;99.90;;;;;;5053383;28;20017;-69
2021/10/06 01:52:58;;;;;;;12.27;3.70;;;12.00;99.90;;;;;;5052769;28;20124;-68
2021/10/06 01:55:28;;;;;;;9.93;3.67;;;12.10;99.90;;;;;;5053040;28;20027;-68
2021/10/06 01:57:56;;;;;;;9.02;3.63;;;12.10;99.90;;;;;;5052773;28;20091;-68
2021/10/06 02:00:23;;;;;;;14.07;3.58;;;12.10;99.90;;;;;;5054694;28;20134;-68
2021/10/06 02:02:48;;;;;;;10.80;3.53;;;12.10;99.90;;;;;;5056934;28;20378;-68
2021/10/06 02:05:14;;;;;;;7.45;3.13;;;12.10;99.90;;;;;;5056902;28;20079;-68
2021/10/06 02:07:39;;;;;;;8.23;3.17;;;12.10;99.90;;;;;;5056578;28;20039;-68
2021/10/06 02:10:06;;;;;;;8.90;3.60;;;12.10;99.90;;;;;;5056805;28;20036;-68
2021/10/06 02:12:31;;;;;;;8.77;3.55;;;12.10;99.90;;;;;;5055522;28;20470;-68
2021/10/06 02:14:57;;;;;;;10.90;3.08;;;12.10;99.90;;;;;;5056463;28;20025;-68
2021/10/06 02:17:23;;;;;;;7.25;2.80;;;12.10;99.90;;;;;;5055224;28;20017;-68
2021/10/06 02:19:48;;;;;;;9.82;2.80;;;12.10;99.90;;;;;;5056645;28;20022;-68
2021/10/06 02:22:14;;;;;;;8.48;2.97;;;12.10;99.90;;;;;;5056300;28;20025;-68
2021/10/06 02:24:39;;;;;;;8.57;3.00;;;12.10;99.90;;;;;;5056318;28;20029;-68
2021/10/06 02:27:05;;;;;;;8.15;2.90;;;12.10;99.90;;;;;;5056223;28;20028;-68
2021/10/06 02:29:30;;;;;;;11.45;3.08;;;12.10;99.90;;;;;;5056468;28;20375;-68
2021/10/06 02:31:56;;;;;;;5.30;2.80;;;12.10;99.90;;;;;;5056051;28;20445;-68
2021/10/06 02:34:21;;;;;;;7.05;3.17;;;12.10;99.90;;;;;;5056373;28;20506;-68
2021/10/06 02:36:47;;;;;;;7.70;3.60;;;12.00;99.90;;;;;;5054882;28;20060;-68
2021/10/06 02:39:12;;;;;;;6.90;2.88;;;12.00;99.90;;;;;;5056264;28;20025;-68
2021/10/06 02:41:38;;;;;;;10.30;2.88;;;12.00;99.90;;;;;;5056228;28;20481;-68
2021/10/06 02:44:04;;;;;;;13.32;3.30;;;11.90;99.90;;;;;;5055899;28;20528;-67
2021/10/06 02:46:30;;;;;;;7.68;2.55;;;11.90;99.90;;;;;;5055859;28;20487;-68
2021/10/06 02:48:55;;;;;;;8.35;3.38;;;11.90;99.90;;;;;;5056163;28;20049;-68
2021/10/06 02:51:21;;;;;;;10.25;3.50;;;11.90;99.90;;;;;;5055786;28;20367;-67
2021/10/06 02:53:46;;;;;;;10.15;3.38;;;11.90;99.90;;;;;;5055926;28;20036;-67
2021/10/06 02:56:12;;;;;;;12.48;3.88;;;11.90;99.90;;;;;;5055943;28;20017;-67
2021/10/06 02:58:37;;;;;;;10.02;3.33;;;11.80;99.90;;;;;;5055924;28;20025;-68
2021/10/06 03:01:03;;;;;;;10.73;3.67;;;11.80;99.90;;;;;;5055844;28;20025;-68
2021/10/06 03:03:28;;;;;;;10.27;3.35;;;11.80;99.90;;;;;;5055557;28;20036;-67
2021/10/06 03:05:54;;;;;;;11.80;3.75;;;11.80;99.90;;;;;;5054607;28;20033;-67
2021/10/06 03:08:19;;;;;;;10.75;3.60;;;11.70;99.90;;;;;;5055729;28;20029;-68
2021/10/06 03:10:45;;;;;;;8.23;3.22;;;11.80;99.90;;;;;;5055396;28;20067;-69
2021/10/06 03:13:11;;;;;;;7.20;3.03;;;11.70;99.90;;;;;;5055591;28;20024;-68
2021/10/06 03:15:36;;;;;;;9.90;2.72;;;11.70;99.90;;;;;;5055041;28;20029;-68
2021/10/06 03:18:02;;;;;;;5.75;3.08;;;11.60;99.90;;;;;;5055259;28;20078;-68
2021/10/06 03:20:27;;;;;;;7.95;2.80;;;11.50;99.90;;;;;;5055223;28;20033;-68
2021/10/06 03:22:53;;;;;;;12.50;4.18;;;11.60;99.90;;;;;;5055193;28;20112;-68
2021/10/06 03:25:18;;;;;;;8.48;3.10;;;11.60;99.90;;;;;;5055146;28;20171;-68
2021/10/06 03:27:44;;;;;;;9.45;3.15;;;11.60;99.90;;;;;;5054366;28;20484;-69
2021/10/06 03:30:10;;;;;;;11.43;3.47;;;11.60;99.90;;;;;;5054168;28;20096;-68
2021/10/06 03:32:36;;;;;;;8.57;3.08;;;11.70;99.90;;;;;;5055169;28;20056;-68
2021/10/06 03:35:01;;;;;;;7.32;3.00;;;11.70;99.90;;;;;;5055182;28;20454;-68
2021/10/06 03:37:27;;;;;;;14.82;3.55;;;11.80;99.90;;;;;;5054867;28;20025;-68
2021/10/06 03:39:53;;;;;;;11.73;3.30;;;11.70;99.90;;;;;;5054831;28;20048;-68
2021/10/06 03:42:18;;;;;;;10.80;3.08;;;11.80;99.90;;;;;;5053233;28;20032;-67
2021/10/06 03:44:44;;;;;;;8.07;2.88;;;11.80;99.90;;;;;;5055013;28;20475;-68
2021/10/06 03:47:10;;;;;;;12.93;3.20;;;11.80;99.90;;;;;;5054968;28;20099;-68
2021/10/06 03:49:35;;;;;;;8.10;3.60;;;11.80;99.90;;;;;;5054353;28;20075;-69
2021/10/06 03:52:01;;;;;;;6.05;2.83;;;11.70;99.90;;;;;;5054226;28;20095;-68
2021/10/06 03:54:26;;;;;;;10.50;3.45;;;11.70;99.90;;;;;;5053575;28;20067;-68
2021/10/06 03:56:52;;;;;;;9.43;3.40;;;11.70;99.90;;;;;;5052993;28;20032;-67
2021/10/06 03:59:18;;;;;;;8.82;3.13;;;11.70;99.90;;;;;;5052944;28;20021;-68
2021/10/06 04:01:43;;;;;;;10.20;3.47;;;11.60;99.90;;;;;;5052990;28;20058;-68
2021/10/06 04:04:09;;;;;;;12.70;3.40;;;11.60;99.90;;;;;;5054386;28;20021;-68
2021/10/06 04:06:34;;;;;;;6.50;3.35;;;11.50;99.90;;;;;;5054336;28;20047;-68
2021/10/06 04:09:00;;;;;;;9.30;3.70;;;11.40;99.90;;;;;;5054600;28;20033;-68
2021/10/06 04:11:26;;;;;;;8.95;3.28;;;11.40;99.90;;;;;;5054275;28;20034;-67
2021/10/06 04:13:51;;;;;;;8.25;3.33;;;11.40;99.90;;;;;;5054132;28;20462;-68
2021/10/06 04:16:17;;;;;;;6.53;3.47;;;11.30;99.90;;;;;;5054435;28;20025;-68
2021/10/06 04:18:42;;;;;;;6.93;3.45;;;11.30;99.90;;;;;;5053821;28;20021;-67
2021/10/06 04:21:08;;;;;;;9.52;3.42;;;11.30;99.90;;;;;;5054324;28;20081;-67
2021/10/06 04:23:33;;;;;;;11.75;3.38;;;11.20;99.90;;;;;;5053922;28;20025;-68
2021/10/06 04:25:59;;;;;;;9.82;3.38;;;11.20;99.90;;;;;;5054297;28;20033;-68
2021/10/06 04:28:24;;;;;;;12.88;3.65;;;11.30;99.90;;;;;;5054267;28;20435;-68
2021/10/06 04:30:50;;;;;;;13.50;4.03;;;11.40;99.90;;;;;;5054211;28;20043;-67
2021/10/06 04:33:15;;;;;;;7.00;2.97;;;11.40;99.90;;;;;;5053538;28;20025;-68
2021/10/06 04:35:41;;;;;;;8.13;3.28;;;11.40;99.90;;;;;;5054130;28;20462;-67
2021/10/06 04:38:06;;;;;;;12.55;3.83;;;11.40;99.90;;;;;;5054130;28;20340;-67
2021/10/06 04:40:32;;;;;;;10.73;3.40;;;11.30;99.90;;;;;;5054049;28;20029;-67
2021/10/06 04:42:57;;;;;;;10.88;3.80;;;11.30;99.90;;;;;;5052260;28;20036;-68
2021/10/06 04:45:23;;;;;;;8.00;3.00;;;11.40;99.90;;;;;;5052543;28;20036;-68
2021/10/06 04:47:49;;;;;;;10.50;3.60;;;11.40;99.90;;;;;;5053024;28;20021;-67
2021/10/06 04:50:15;;;;;;;10.18;3.63;;;11.40;99.90;;;;;;5053403;28;20033;-67
2021/10/06 04:52:40;;;;;;;12.93;3.53;;;11.50;99.90;;;;;;5053363;28;20060;-68
2021/10/06 04:55:06;;;;;;;11.20;3.38;;;11.50;99.90;;;;;;5053885;28;20029;-68
2021/10/06 04:57:32;;;;;;;8.93;3.45;;;11.60;99.90;;;;;;5053617;28;20066;-68
2021/10/06 04:59:58;;;;;;;8.50;2.95;;;11.60;99.90;;;;;;5053565;28;20422;-68
2021/10/06 05:02:23;;;;;;;13.18;3.67;;;11.60;99.90;;;;;;5053256;28;20056;-68
2021/10/06 05:04:49;;;;;;;11.48;3.03;;;11.60;99.90;;;;;;5053866;28;20069;-68
2021/10/06 05:07:14;;;;;;;11.18;3.70;;;11.60;99.90;;;;;;5053791;28;20025;-68
2021/10/06 05:09:40;;;;;;;9.55;3.20;;;11.60;99.90;;;;;;5053526;28;20033;-67
2021/10/06 05:12:05;;;;;;;9.95;3.22;;;11.60;99.90;;;;;;5053392;28;20048;-68
2021/10/06 05:14:31;;;;;;;9.02;3.72;;;11.60;99.90;;;;;;5053698;28;20483;-68
2021/10/06 05:16:58;;;;;;;8.00;3.33;;;11.60;99.90;;;;;;5053655;28;20370;-68
2021/10/06 05:19:23;;;;;;;10.35;3.58;;;11.60;99.90;;;;;;5053711;28;20021;-69
2021/10/06 05:21:49;;;;;;;5.63;2.97;;;11.60;99.90;;;;;;5053400;28;20027;-68
2021/10/06 05:24:14;;;;;;;13.43;3.33;;;11.60;99.90;;;;;;5053624;28;20029;-67
2021/10/06 05:26:40;;;;;;;9.20;3.20;;;11.70;99.90;;;;;;5053020;28;20082;-68
2021/10/06 05:29:06;;;;;;;10.40;3.20;;;11.70;99.90;;;;;;5053502;28;20039;-69
2021/10/06 05:31:31;;;;;;;13.93;3.40;;;11.70;99.90;;;;;;5053555;28;20040;-68
2021/10/06 05:33:57;;;;;;;13.48;3.70;;;11.60;99.90;;;;;;5053488;28;20032;-69
2021/10/06 05:36:23;;;;;;;8.85;3.25;;;11.50;99.90;;;;;;5055711;28;20029;-68
2021/10/06 05:38:49;;;;;;;15.50;4.03;;;11.50;99.90;;;;;;5057120;28;20032;-68
2021/10/06 05:41:15;;;;;;;12.90;3.10;;;11.50;99.90;;;;;;5057325;28;20367;-68
2021/10/06 05:43:40;;;;;;;8.35;3.17;;;11.50;99.90;;;;;;5055492;28;20033;-68
2021/10/06 05:46:06;;;;;;;11.98;3.42;;;11.60;99.90;;;;;;5057235;28;20025;-68
2021/10/06 05:48:32;;;;;;;8.52;3.50;;;11.60;99.90;;;;;;5056169;28;20033;-68
2021/10/06 05:50:57;;;;;;;13.75;3.28;;;11.60;99.90;;;;;;5068381;28;20025;-68
2021/10/06 05:53:23;;;;;;;13.27;3.08;;;11.60;99.90;;;;;;5076219;28;20473;-68
2021/10/06 05:55:48;;;;;;;10.95;3.33;;;11.70;99.90;;;;;;5076524;28;20071;-68
2021/10/06 05:58:14;;;;;;;9.82;3.25;;;11.70;99.90;;;;;;5077168;28;20020;-68
2021/10/06 06:00:40;;;;;;;6.43;2.95;;;11.80;99.90;;;;;;5076936;28;20019;-68
2021/10/06 06:03:09;;;;;;;7.82;2.75;;;11.70;99.90;;;;;;5076629;28;20028;-68
2021/10/06 06:05:34;;;;;;;13.15;3.55;;;11.80;99.90;;;;;;5076740;28;20032;-68
2021/10/06 06:08:00;;;;;;;8.55;3.25;;;11.70;99.90;;;;;;5055229;28;20098;-68
2021/10/06 06:10:25;;;;;;;9.32;3.38;;;11.80;99.90;;;;;;5043798;28;20037;-66
2021/10/06 06:12:52;;;;;;;13.07;2.90;;;11.80;99.90;;;;;;5055002;28;20033;-68
2021/10/06 06:15:17;;;;;;;10.55;3.05;;;11.80;99.90;;;;;;5056637;28;20028;-68
2021/10/06 06:17:43;;;;;;;8.07;2.78;;;11.90;99.90;;;;;;5052149;28;20021;-68
2021/10/06 06:20:12;;;;;;;11.40;2.90;;;11.90;99.90;;;;;;5053378;28;20074;-66
2021/10/06 06:22:39;;;;;;;10.57;3.47;;;11.90;99.90;;;;;;5072279;28;20067;-68
2021/10/06 06:25:06;;;;;;;9.65;3.03;;;11.90;99.90;;;;;;5071073;28;20028;-67
2021/10/06 06:27:32;;;;;;;8.95;3.10;;;11.90;99.90;;;;;;5058276;28;20024;-67
2021/10/06 06:29:58;;;;;;;7.82;2.80;;;11.90;99.90;;;;;;5063844;28;20036;-66
2021/10/06 06:32:23;;;;;;;9.30;2.97;;;11.90;99.90;;;;;;5073054;28;20028;-69
2021/10/06 06:34:50;;;;;;;11.95;3.50;;;11.90;99.90;;;;;;5061944;28;20494;-68
2021/10/06 06:37:16;;;;;;;7.45;3.22;;;11.90;99.90;;;;;;5053802;28;20051;-69
2021/10/06 06:39:41;;;;;;;8.05;2.42;;;12.00;99.90;;;;;;5054460;28;20064;-69
2021/10/06 06:42:07;;;;;;;8.82;3.40;;;12.00;99.90;;;;;;5045522;28;20091;-69
2021/10/06 06:44:32;;;;;;;10.93;2.97;;;12.00;99.90;;;;;;5052425;28;20021;-69
2021/10/06 06:46:58;;;;;;;7.93;2.35;;;12.10;99.90;;;;;;5047645;28;20029;-68
2021/10/06 06:49:23;;;;;;;6.15;2.33;;;12.10;99.90;;;;;;5054715;28;20024;-70
2021/10/06 06:51:49;;;;;;;9.32;2.60;;;12.20;99.90;;;;;;5067722;28;20056;-69
2021/10/06 06:54:14;;;;;;;5.60;2.33;;;12.10;99.90;;;;;;5050618;28;20482;-68
2021/10/06 06:56:40;;;;;;;5.80;2.00;;;12.10;99.90;;;;;;5042037;28;20082;-69
2021/10/06 06:59:07;;;;;;;10.70;3.10;;;12.10;99.90;;;;;;5046265;28;20517;-68
2021/10/06 07:01:33;;;;;;;9.50;2.80;;;12.10;99.90;;;;;;5056859;28;20016;-68
2021/10/06 07:03:58;;;;;;;9.45;2.58;;;12.20;99.90;;;;;;5048848;28;20033;-66
2021/10/06 07:06:25;;;;;;;8.48;2.70;;;12.20;99.90;;;;;;5048580;28;20026;-66
2021/10/06 07:08:50;;;;;;;5.72;2.42;;;12.20;99.90;;;;;;5057698;28;20111;-69
2021/10/06 07:11:16;;;;;;;8.80;2.55;;;12.30;99.90;;;;;;5067888;28;20147;-66
2021/10/06 07:13:42;;;;;;;8.75;2.85;;;12.30;99.90;;;;;;5038328;28;20116;-69
2021/10/06 07:16:07;;;;;;;8.13;2.65;;;12.30;99.90;;;;;;5053385;28;20107;-69
2021/10/06 07:18:33;;;;;;;6.72;2.72;;;12.40;99.90;;;;;;5054672;28;20071;-67
2021/10/06 07:20:58;;;;;;;7.72;2.65;;;12.40;99.90;;;;;;5072055;28;20461;-67
2021/10/06 07:23:24;;;;;;;9.65;2.33;;;12.50;99.90;;;;;;5045701;28;20112;-67
2021/10/06 07:25:50;;;;;;;8.55;2.38;;;12.60;99.90;;;;;;5053305;28;20025;-67
2021/10/06 07:28:15;;;;;;;6.25;2.55;;;12.50;99.90;;;;;;5050991;28;20047;-68
2021/10/06 07:30:41;;;;;;;10.43;2.80;;;12.40;99.90;;;;;;5075071;28;20098;-68
2021/10/06 07:33:06;;;;;;;9.07;2.33;;;12.30;99.90;;;;;;5041098;28;20028;-70
2021/10/06 07:35:32;;;;;;;6.10;2.53;;;12.20;99.90;;;;;;5063406;28;20415;-66
2021/10/06 07:37:57;;;;;;;5.93;2.60;;;12.20;99.90;;;;;;5043544;28;20478;-68
2021/10/06 07:40:23;;;;;;;8.85;2.40;;;12.30;99.90;;;;;;5055720;28;20140;-68
2021/10/06 07:42:49;;;;;;;10.57;3.03;;;12.40;99.90;;;;;;5056543;28;20041;-69
2021/10/06 07:45:14;;;;;;;7.90;2.65;;;12.50;99.90;;;;;;5061099;28;20471;-71
2021/10/06 07:47:40;;;;;;;7.47;2.67;;;12.50;99.90;;;;;;5051757;28;20061;-66
2021/10/06 07:50:06;;;;;;;7.10;2.60;;;12.50;99.90;;;;;;5039374;28;20498;-66
2021/10/06 07:52:32;;;;;;;5.32;2.80;;;12.50;99.90;;;;;;5053185;28;20049;-66
2021/10/06 07:54:57;;;;;;;11.70;2.80;;;12.30;99.90;;;;;;5056107;28;20328;-66
2021/10/06 07:57:23;;;;;;;8.18;3.05;;;12.30;99.90;;;;;;5051786;28;20041;-66
2021/10/06 07:59:48;;;;;;;7.80;3.00;;;12.20;99.90;;;;;;5059611;28;20029;-66
2021/10/06 08:02:14;;;;;;;10.15;3.00;;;12.10;99.90;;;;;;5033756;28;20467;-66
2021/10/06 08:04:40;;;;;;;8.48;3.10;;;12.00;99.90;;;;;;5049978;28;20025;-66
2021/10/06 08:07:05;;;;;;;11.45;3.78;;;11.90;99.90;;;;;;5042947;28;20044;-65
2021/10/06 08:09:32;;;;;;;9.68;3.50;;;11.80;99.90;;;;;;5047455;28;20029;-66
2021/10/06 08:11:57;;;;;;;14.20;4.07;;;11.70;99.90;;;;;;5052130;28;20082;-67
2021/10/06 08:14:23;;;;;;;12.68;3.92;;;11.60;99.90;;;;;;5059996;28;20025;-65
2021/10/06 08:16:49;;;;;;;7.07;3.72;;;11.40;99.90;;;;;;5056397;28;20052;-66
2021/10/06 08:19:15;;;;;;;11.73;3.35;;;11.40;99.90;;;;;;5053639;28;20025;-66
2021/10/06 08:21:41;;;;;;;13.07;3.72;;;11.30;99.90;;;;;;5054196;28;20056;-66
2021/10/06 08:24:07;;;;;;;10.35;3.50;;;11.40;99.90;;;;;;5040531;28;20029;-67
2021/10/06 08:26:32;;;;;;;6.60;2.80;;;11.30;99.90;;;;;;5042259;28;20074;-65
2021/10/06 08:28:58;;;;;;;7.60;3.00;;;11.40;99.90;;;;;;5052508;28;20032;-65
2021/10/06 08:31:23;;;;;;;8.05;4.07;;;11.50;99.90;;;;;;5045054;28;20017;-65
2021/10/06 08:33:49;;;;;;;17.02;7.38;;;11.50;99.90;;;;;;5047569;28;20036;-66
2021/10/06 08:36:15;;;;;;;5.78;2.55;;;11.60;99.90;;;;;;5046035;28;20021;-64
2021/10/06 08:38:41;;;;;;;8.05;2.58;;;11.90;99.90;;;;;;5042530;28;20037;-65
2021/10/06 08:41:07;;;;;;;8.73;2.63;;;11.90;99.90;;;;;;5042083;28;20094;-65
2021/10/06 08:43:34;;;;;;;6.88;2.80;;;11.90;99.90;;;;;;5064478;28;20040;-65
2021/10/06 08:46:00;;;;;;;6.03;2.17;;;11.90;99.90;;;;;;5044377;28;20033;-65
2021/10/06 08:48:27;;;;;;;8.77;2.65;;;12.00;99.90;;;;;;5048483;28;20033;-64
2021/10/06 08:50:53;;;;;;;6.47;2.42;;;12.00;99.90;;;;;;5048241;28;20035;-64
2021/10/06 08:53:19;;;;;;;7.32;2.30;;;12.30;99.90;;;;;;5055725;28;20483;-64
2021/10/06 08:55:44;;;;;;;6.20;2.22;;;12.70;99.90;;;;;;5053846;28;20410;-65
2021/10/06 08:58:10;;;;;;;6.95;2.22;;;13.20;99.90;;;;;;5051825;28;20036;-65
2021/10/06 09:00:56;;;;;;;6.32;1.70;;;13.50;99.90;;;;;;5067878;28;20028;-65
2021/10/06 09:03:36;;;;;;;10.10;1.83;;;13.50;99.90;;;;;;5054088;28;20033;-65
2021/10/06 09:06:07;;;;;;;5.38;1.88;;;13.40;99.90;;;;;;5062042;28;20036;-66
2021/10/06 09:08:43;;;;;;;8.85;2.10;;;13.60;99.90;;;;;;5038663;28;20476;-65
2021/10/06 09:11:08;;;;;;;6.82;2.38;;;13.60;99.90;;;;;;5073412;28;20033;-65
2021/10/06 09:13:39;;;;;;;5.43;1.80;;;13.50;99.90;;;;;;5076438;28;20039;-65
2021/10/06 09:16:06;;;;;;;4.70;1.95;;;13.80;99.90;;;;;;5047043;28;20049;-66
2021/10/06 09:18:33;;;;;;;3.40;2.08;;;13.40;99.90;;;;;;5038090;28;20025;-67
2021/10/06 09:21:01;;;;;;;5.78;2.30;;;13.30;99.90;;;;;;5071998;28;20111;-67
2021/10/06 09:23:29;;;;;;;7.53;2.30;;;13.20;99.90;;;;;;5071541;28;20386;-67
2021/10/06 09:25:58;;;;;;;4.15;2.25;;;13.00;99.90;;;;;;5056645;28;20432;-67
2021/10/06 09:28:41;;;;;;;5.78;2.60;;;12.90;99.90;;;;;;5055739;28;20505;-67
2021/10/06 09:31:13;;;;;;;8.15;2.67;;;12.90;99.90;;;;;;5040261;28;20033;-66
2021/10/06 09:33:51;;;;;;;6.63;2.85;;;12.80;99.90;;;;;;5050252;28;20032;-68
2021/10/06 09:36:31;;;;;;;6.80;2.72;;;12.80;99.90;;;;;;5056618;28;20519;-67
2021/10/06 09:39:02;;;;;;;4.75;2.22;;;12.70;99.90;;;;;;5052002;28;20025;-67
2021/10/06 09:41:38;;;;;;;6.93;2.40;;;12.70;99.90;;;;;;5036560;28;20017;-66
2021/10/06 09:44:18;;;;;;;9.25;2.75;;;12.70;99.90;;;;;;5059309;28;20047;-66
2021/10/06 09:47:02;;;;;;;8.20;2.78;;;12.50;99.90;;;;;;5045536;28;20111;-67
2021/10/06 09:49:35;;;;;;;9.10;2.45;;;12.50;99.90;;;;;;5055560;28;20032;-66
2021/10/06 09:52:22;;;;;;;10.07;2.65;;;12.40;99.90;;;;;;5055571;28;20190;-65
2021/10/06 09:57:29;;;;;;;11.43;2.88;;;12.50;99.90;;;;;;5082318;27;20429;-66
2021/10/06 09:59:57;;;;;;;3.67;2.53;;;12.70;99.90;;;;;;5068642;28;20108;-65
2021/10/06 10:02:25;;;;;;;5.53;2.45;;;12.60;99.90;;;;;;5073090;28;20450;-66
2021/10/06 10:04:51;;;;;;;3.38;2.30;;;12.60;99.90;;;;;;5065690;28;20044;-65
2021/10/06 10:07:17;;;;;;;6.60;2.38;;;12.70;99.90;;;;;;5051617;28;20116;-66
2021/10/06 10:09:43;;;;;;;5.43;2.45;;;12.80;99.90;;;;;;5064717;28;20060;-65
2021/10/06 10:12:09;;;;;;;4.82;2.50;;;12.60;99.90;;;;;;5050245;28;20029;-65
2021/10/06 10:14:35;;;;;;;6.30;2.30;;;12.60;99.90;;;;;;5050351;28;20029;-66
2021/10/06 10:17:01;;;;;;;5.65;2.40;;;12.50;99.90;;;;;;5049514;28;20044;-66
2021/10/06 10:19:27;;;;;;;6.00;2.65;;;12.50;99.90;;;;;;5061594;28;20036;-66
2021/10/06 10:21:55;;;;;;;11.15;3.03;;;12.50;99.90;;;;;;5069599;28;20028;-66
2021/10/06 10:24:23;;;;;;;4.10;2.33;;;12.70;99.90;;;;;;5059590;28;20033;-67
2021/10/06 10:27:07;;;;;;;6.35;2.20;;;13.00;99.90;;;;;;5065252;28;20064;-67
2021/10/06 10:29:37;;;;;;;5.85;2.00;;;13.10;99.90;;;;;;5061542;28;20024;-66
2021/10/06 10:32:08;;;;;;;3.40;1.98;;;13.10;99.90;;;;;;5068605;28;20029;-66
2021/10/06 10:35:00;;;;;;;4.82;2.47;;;13.20;99.90;;;;;;5070893;28;20087;-65
2021/10/06 10:37:48;;;;;;;4.72;2.17;;;13.30;99.90;;;;;;5089722;28;20024;-65
2021/10/06 10:40:35;;;;;;;6.80;2.35;;;13.20;99.90;;;;;;5076363;28;20027;-65
2021/10/06 10:43:22;;;;;;;5.97;2.30;;;13.10;99.90;;;;;;5086744;28;20070;-65
2021/10/06 10:46:02;;;;;;;2.95;2.00;;;13.00;99.90;;;;;;5072912;28;20075;-65
2021/10/06 10:48:31;;;;;;;6.35;2.42;;;13.10;99.90;;;;;;5089296;28;20034;-65
2021/10/06 10:56:48;;;;;;;4.07;2.35;;;13.10;99.90;;;;;;5110191;27;20395;-65
2021/10/06 10:59:17;;;;;;;4.55;2.80;;;12.60;99.90;;;;;;5108960;28;20030;-65
2021/10/06 11:04:25;;;;;;;5.50;3.63;;;12.20;99.90;;;;;;5061044;28;20432;-66
2021/10/06 11:06:54;;;;;;;4.75;3.30;;;12.10;99.90;;;;;;5034717;28;20399;-67
2021/10/06 11:09:42;;;;;;;5.43;3.60;;;12.10;99.90;;;;;;5049143;28;20029;-66
2021/10/06 11:14:49;;;;;;;4.68;2.70;;;12.20;99.90;;;;;;5100530;27;20120;-67
2021/10/06 11:17:18;;;;;;;6.05;2.92;;;12.20;99.90;;;;;;5096743;28;20437;-69
2021/10/06 11:19:49;;;;;;;6.72;2.75;;;12.20;99.90;;;;;;5082339;28;20060;-69
2021/10/06 11:25:02;;;;;;;4.88;2.25;;;12.30;99.90;;;;;;5072376;28;20927;-69
2021/10/06 11:27:42;;;;;;;7.60;2.50;;;12.20;99.90;;;;;;5055950;28;20029;-69
2021/10/06 11:30:11;;;;;;;5.18;2.58;;;12.20;99.90;;;;;;5058481;28;20129;-69
2021/10/06 11:32:45;;;;;;;5.72;2.58;;;12.30;99.90;;;;;;5059444;28;20064;-69
2021/10/06 11:35:11;;;;;;;4.40;2.10;;;12.30;99.90;;;;;;5051407;28;20149;-69
2021/10/06 11:37:36;;;;;;;7.78;2.70;;;12.20;99.90;;;;;;5050048;28;20021;-69
2021/10/06 11:40:11;;;;;;;8.10;2.40;;;12.20;99.90;;;;;;5052265;28;20438;-69
2021/10/06 11:42:38;;;;;;;4.82;2.20;;;12.20;99.90;;;;;;5055083;28;20029;-69
2021/10/06 11:45:05;;;;;;;3.53;2.10;;;12.20;99.90;;;;;;5056325;28;20024;-70
2021/10/06 11:47:37;;;;;;;5.13;1.95;;;12.10;99.90;;;;;;5050539;28;20049;-69
2021/10/06 11:50:04;;;;;;;4.40;2.22;;;12.10;99.90;;;;;;5056526;28;20053;-69
2021/10/06 11:52:29;;;;;;;3.80;2.38;;;12.00;99.90;;;;;;5061727;28;20025;-69
2021/10/06 11:54:55;;;;;;;6.07;2.70;;;12.00;99.90;;;;;;5051589;28;20103;-69
2021/10/06 11:57:22;;;;;;;3.58;2.70;;;12.00;99.90;;;;;;5069144;28;20044;-69
2021/10/06 11:59:48;;;;;;;5.80;2.78;;;12.00;99.90;;;;;;5064631;28;20036;-69
2021/10/06 12:02:15;;;;;;;4.75;2.58;;;12.00;99.90;;;;;;5059275;28;20036;-72
2021/10/06 12:04:43;;;;;;;4.43;2.70;;;12.00;99.90;;;;;;5061255;28;20067;-71
2021/10/06 12:07:14;;;;;;;3.85;2.35;;;12.00;99.90;;;;;;5053408;28;20111;-71
2021/10/06 12:09:46;;;;;;;3.13;2.40;;;12.00;99.90;;;;;;5064396;28;20021;-72
2021/10/06 12:12:15;;;;;;;6.07;3.03;;;11.90;99.90;;;;;;5065871;28;20101;-71
2021/10/06 12:14:45;;;;;;;6.78;3.50;;;11.90;99.90;;;;;;5065749;28;20378;-71
2021/10/06 12:17:16;;;;;;;5.32;2.95;;;11.90;99.90;;;;;;5050800;28;20033;-71
2021/10/06 12:20:04;;;;;;;6.00;3.42;;;11.90;99.90;;;;;;5050235;28;20417;-72
2021/10/06 12:22:38;;;;;;;3.47;3.17;;;11.90;99.90;;;;;;5065782;28;20104;-71
2021/10/06 12:25:14;;;;;;;5.95;3.20;;;11.80;99.90;;;;;;5068337;28;20056;-71
2021/10/06 12:27:44;;;;;;;3.75;3.03;;;11.80;99.90;;;;;;5060668;28;20022;-68
2021/10/06 12:30:21;;;;;;;3.95;2.72;;;11.80;99.90;;;;;;5048722;28;20048;-68
2021/10/06 12:32:50;;;;;;;2.97;2.78;;;11.80;99.90;;;;;;5065127;28;20449;-68
2021/10/06 12:35:19;;;;;;;4.53;3.00;;;11.90;99.90;;;;;;5054469;28;20049;-68
2021/10/06 12:37:47;;;;;;;5.43;2.80;;;11.90;99.90;;;;;;5055011;28;20072;-68
2021/10/06 12:46:11;;;;;;;4.03;3.55;;;12.00;99.90;;;;;;5101471;27;20420;-69
2021/10/06 12:48:55;;;;;;;3.58;3.13;;;12.00;99.90;;;;;;5109890;28;20381;-69
2021/10/06 12:51:26;;;;;;;;;;;12.10;99.90;;;;;;5103248;28;20020;-69
2021/10/06 12:53:58;;;;;;;3.40;3.10;;;12.20;99.90;;;;;;5096139;28;19908;-69
2021/10/06 12:56:41;;;;;;;5.03;3.42;;;12.30;99.90;;;;;;5089622;28;20450;-68
2021/10/06 12:59:11;;;;;;;4.85;3.10;;;12.40;99.90;;;;;;5088956;28;20058;-68
2021/10/06 13:01:40;;;;;;;6.45;3.15;;;12.40;99.90;;;;;;5104816;28;20039;-69
2021/10/06 13:04:10;;;;;;;5.18;3.00;;;12.30;99.90;;;;;;5104984;28;20466;-68
2021/10/06 13:06:37;;;;;;;3.50;2.95;;;12.30;99.90;;;;;;5094656;28;20055;-68
2021/10/06 13:09:04;;;;;;;3.60;3.10;;;12.30;99.90;;;;;;5110711;28;20023;-70